createdAt,value
2024-01-07T00:02:25.403Z,97687.19
2024-01-07T00:04:53.425Z,97682.19
2024-01-07T00:07:22.007Z,97679.66
2024-01-07T00:09:50.091Z,97680.06
2024-01-07T00:12:18.426Z,97674.50
2024-01-07T00:14:46.311Z,97673.97
2024-01-07T00:17:14.301Z,97673.06
2024-01-07T00:19:42.997Z,97677.69
2024-01-07T00:22:11.073Z,97671.41
2024-01-07T00:24:39.015Z,97674.69
2024-01-07T00:27:07.070Z,97671.97
2024-01-07T00:29:36.740Z,97676.66
2024-01-07T00:32:04.948Z,97672.38
2024-01-07T00:34:34.129Z,97676.41
2024-01-07T00:37:02.273Z,97670.84
2024-01-07T00:39:30.219Z,97666.34
2024-01-07T00:41:58.265Z,97666.75
2024-01-07T00:44:26.253Z,97664.31
2024-01-07T00:46:54.164Z,97672.69
2024-01-07T00:49:22.369Z,97674.19
2024-01-07T00:51:50.330Z,97671.25
2024-01-07T00:54:18.241Z,97671.75
2024-01-07T00:56:46.895Z,97680.38
2024-01-07T00:59:14.833Z,97677.88
2024-01-07T01:01:43.042Z,97683.00
2024-01-07T01:04:11.288Z,97690.91
2024-01-07T01:06:39.316Z,97682.88
2024-01-07T01:09:07.408Z,97690.84
2024-01-07T01:11:35.467Z,97694.53
2024-01-07T01:14:03.405Z,97689.22
2024-01-07T01:16:31.295Z,97689.03
2024-01-07T01:18:59.411Z,97691.75
2024-01-07T01:21:27.346Z,97688.34
2024-01-07T01:23:55.882Z,97692.28
2024-01-07T01:26:23.984Z,97692.84
2024-01-07T01:28:51.860Z,97691.19
2024-01-07T01:31:19.822Z,97688.78
2024-01-07T01:33:48.163Z,97692.84
2024-01-07T01:36:16.099Z,97688.19
2024-01-07T01:38:44.110Z,97682.78
2024-01-07T01:41:12.144Z,97684.22
2024-01-07T01:43:40.024Z,97678.47
2024-01-07T01:46:08.273Z,97674.25
2024-01-07T01:48:39.360Z,97672.28
2024-01-07T01:51:07.983Z,97683.22
2024-01-07T01:53:36.222Z,97683.44
2024-01-07T01:56:04.804Z,97680.56
2024-01-07T01:58:33.923Z,97683.03
2024-01-07T02:01:02.134Z,97684.38
2024-01-07T02:03:30.268Z,97682.59
2024-01-07T02:05:59.053Z,97683.00
2024-01-07T02:08:27.974Z,97684.94
2024-01-07T02:10:55.891Z,97683.97
2024-01-07T02:13:23.815Z,97684.78
2024-01-07T02:15:51.871Z,97685.19
2024-01-07T02:18:19.820Z,97683.16
2024-01-07T02:20:47.979Z,97684.25
2024-01-07T02:23:16.241Z,97686.91
2024-01-07T02:25:44.242Z,97689.34
2024-01-07T02:28:12.285Z,97695.91
2024-01-07T02:30:40.440Z,97696.06
2024-01-07T02:33:08.580Z,97697.47
2024-01-07T02:35:37.536Z,97701.91
2024-01-07T02:38:05.534Z,97701.16
2024-01-07T02:40:33.510Z,97706.22
2024-01-07T02:43:01.512Z,97704.63
2024-01-07T02:45:30.002Z,97706.88
2024-01-07T02:47:58.191Z,97701.88
2024-01-07T02:50:26.214Z,97701.06
2024-01-07T02:52:54.219Z,97706.22
2024-01-07T02:55:22.153Z,97700.47
2024-01-07T02:57:50.048Z,97696.84
2024-01-07T03:00:18.392Z,97699.84
2024-01-07T03:02:46.445Z,97695.94
2024-01-07T03:05:14.514Z,97706.63
2024-01-07T03:07:42.528Z,97705.13
2024-01-07T03:10:10.680Z,97704.34
2024-01-07T03:12:38.761Z,97710.34
2024-01-07T03:15:08.484Z,97707.00
2024-01-07T03:17:37.149Z,97708.31
2024-01-07T03:20:05.478Z,97709.16
2024-01-07T03:22:33.624Z,97706.09
2024-01-07T03:25:01.653Z,97709.75
2024-01-07T03:27:29.711Z,97709.75
2024-01-07T03:29:57.780Z,97705.03
2024-01-07T03:32:25.660Z,97714.22
2024-01-07T03:34:54.917Z,97716.50
2024-01-07T03:37:22.889Z,97714.47
2024-01-07T03:39:50.863Z,97717.88
2024-01-07T03:42:19.101Z,97718.06
2024-01-07T03:44:46.986Z,97724.03
2024-01-07T03:47:15.077Z,97728.91
2024-01-07T03:49:43.205Z,97725.88
2024-01-07T03:52:11.207Z,97729.00
2024-01-07T03:54:39.122Z,97730.81
2024-01-07T03:57:07.166Z,97724.72
2024-01-07T03:59:35.175Z,97729.59
2024-01-07T04:02:03.443Z,97725.50
2024-01-07T04:04:31.578Z,97719.53
2024-01-07T04:06:59.577Z,97731.84
2024-01-07T04:09:27.670Z,97721.75
2024-01-07T04:11:55.679Z,97721.22
2024-01-07T04:14:23.629Z,97715.91
2024-01-07T04:16:51.655Z,97727.97
2024-01-07T04:19:19.682Z,97729.00
2024-01-07T04:21:47.845Z,97729.28
2024-01-07T04:24:16.032Z,97728.78
2024-01-07T04:26:43.912Z,97732.69
2024-01-07T04:29:11.811Z,97724.72
2024-01-07T04:31:39.928Z,97738.28
2024-01-07T04:34:08.033Z,97734.78
2024-01-07T04:36:36.209Z,97738.22
2024-01-07T04:39:04.313Z,97748.09
2024-01-07T04:41:32.194Z,97739.63
2024-01-07T04:44:00.191Z,97741.69
2024-01-07T04:46:28.240Z,97752.59
2024-01-07T04:48:56.998Z,97749.34
2024-01-07T04:51:24.975Z,97747.84
2024-01-07T04:53:52.979Z,97755.88
2024-01-07T04:56:21.455Z,97757.94
2024-01-07T04:58:49.349Z,97765.50
2024-01-07T05:01:17.590Z,97766.06
2024-01-07T05:03:45.650Z,97765.06
2024-01-07T05:06:13.735Z,97764.50
2024-01-07T05:08:42.744Z,97764.28
2024-01-07T05:11:10.815Z,97775.19
2024-01-07T05:13:38.828Z,97771.88
2024-01-07T05:16:07.201Z,97772.06
2024-01-07T05:18:35.266Z,97776.44
2024-01-07T05:21:03.273Z,97777.25
2024-01-07T05:23:31.319Z,97779.53
2024-01-07T05:26:00.987Z,97784.00
2024-01-07T05:28:29.013Z,97780.75
2024-01-07T05:30:57.157Z,97790.13
2024-01-07T05:33:25.199Z,97790.50
2024-01-07T05:35:53.418Z,97790.00
2024-01-07T05:38:21.560Z,97793.03
2024-01-07T05:40:49.454Z,97796.91
2024-01-07T05:43:17.465Z,97796.09
2024-01-07T05:45:45.439Z,97801.31
2024-01-07T05:48:13.394Z,97809.09
2024-01-07T05:50:41.730Z,97807.13
2024-01-07T05:53:09.706Z,97815.88
2024-01-07T05:55:37.640Z,97814.63
2024-01-07T05:58:05.973Z,97808.47
2024-01-07T06:00:33.936Z,97812.63
2024-01-07T06:03:02.248Z,97812.06
2024-01-07T06:05:31.165Z,97819.66
2024-01-07T06:07:59.206Z,97830.59
2024-01-07T06:10:27.668Z,97823.47
2024-01-07T06:12:55.724Z,97827.25
2024-01-07T06:15:23.715Z,97833.03
2024-01-07T06:17:51.726Z,97839.69
2024-01-07T06:20:19.881Z,97832.97
2024-01-07T06:22:47.883Z,97835.09
2024-01-07T06:25:15.830Z,97840.63
2024-01-07T06:27:44.541Z,97846.53
2024-01-07T06:30:13.021Z,97849.56
2024-01-07T06:32:41.123Z,97854.84
2024-01-07T06:35:09.399Z,97851.09
2024-01-07T06:37:37.338Z,97852.28
2024-01-07T06:40:05.678Z,97857.59
2024-01-07T06:42:33.736Z,97854.22
2024-01-07T06:45:01.708Z,97865.13
2024-01-07T06:47:29.631Z,97867.53
2024-01-07T06:49:57.724Z,97868.81
2024-01-07T06:52:25.733Z,97877.75
2024-01-07T06:54:53.666Z,97876.53
2024-01-07T06:57:21.701Z,97878.69
2024-01-07T06:59:49.701Z,97883.25
2024-01-07T07:02:17.585Z,97886.94
2024-01-07T07:04:45.661Z,97886.66
2024-01-07T07:07:13.612Z,97895.94
2024-01-07T07:09:41.715Z,97892.16
2024-01-07T07:12:10.016Z,97894.63
2024-01-07T07:14:37.893Z,97892.56
2024-01-07T07:17:05.917Z,97905.22
2024-01-07T07:19:34.078Z,97908.78
2024-01-07T07:22:02.169Z,97913.19
2024-01-07T07:24:30.351Z,97913.91
2024-01-07T07:26:58.286Z,97929.44
2024-01-07T07:29:26.224Z,97929.69
2024-01-07T07:31:54.300Z,97933.25
2024-01-07T07:34:22.498Z,97936.41
2024-01-07T07:36:50.542Z,97931.72
2024-01-07T07:39:18.611Z,97945.44
2024-01-07T07:41:46.513Z,97949.50
2024-01-07T07:44:14.502Z,97952.78
2024-01-07T07:46:42.507Z,97949.41
2024-01-07T07:49:10.472Z,97956.72
2024-01-07T07:51:38.720Z,97958.00
2024-01-07T07:54:06.739Z,97956.75
2024-01-07T07:56:34.724Z,97972.06
2024-01-07T07:59:03.802Z,97970.13
2024-01-07T08:01:32.373Z,97966.16
2024-01-07T08:04:00.498Z,97966.09
2024-01-07T08:06:28.498Z,97973.53
2024-01-07T08:08:56.532Z,97982.06
2024-01-07T08:11:24.502Z,97982.94
2024-01-07T08:13:52.390Z,97989.91
2024-01-07T08:16:20.429Z,97996.25
2024-01-07T08:18:48.397Z,97995.97
2024-01-07T08:21:16.427Z,98000.72
2024-01-07T08:23:44.622Z,97998.38
2024-01-07T08:26:13.955Z,98005.88
2024-01-07T08:28:42.334Z,98000.91
2024-01-07T08:31:10.621Z,98008.53
2024-01-07T08:33:38.886Z,98016.78
2024-01-07T08:36:07.789Z,98014.66
2024-01-07T08:38:36.717Z,98019.34
2024-01-07T08:41:05.538Z,98019.47
2024-01-07T08:43:33.512Z,98023.66
2024-01-07T08:46:01.902Z,98029.97
2024-01-07T08:48:30.192Z,98029.97
2024-01-07T08:50:58.578Z,98035.47
2024-01-07T08:53:26.833Z,98034.31
2024-01-07T08:55:54.753Z,98040.72
2024-01-07T08:58:22.741Z,98046.13
2024-01-07T09:00:50.908Z,98043.72
2024-01-07T09:03:19.257Z,98046.66
2024-01-07T09:05:47.394Z,98043.38
2024-01-07T09:08:16.074Z,98053.25
2024-01-07T09:10:44.019Z,98055.59
2024-01-07T09:13:12.106Z,98060.34
2024-01-07T09:15:40.342Z,98057.69
2024-01-07T09:18:08.814Z,98060.63
2024-01-07T09:20:37.052Z,98066.13
2024-01-07T09:23:05.188Z,98069.41
2024-01-07T09:25:33.092Z,98070.91
2024-01-07T09:28:01.995Z,98064.19
2024-01-07T09:30:30.088Z,98071.28
2024-01-07T09:32:58.201Z,98077.13
2024-01-07T09:35:26.732Z,98080.97
2024-01-07T09:37:54.600Z,98078.56
2024-01-07T09:40:22.568Z,98079.81
2024-01-07T09:42:51.514Z,98079.31
2024-01-07T09:45:20.101Z,98089.59
2024-01-07T09:47:48.163Z,98078.31
2024-01-07T09:50:17.642Z,98080.06
2024-01-07T09:52:46.291Z,98080.81
2024-01-07T09:55:23.825Z,98083.16
2024-01-07T09:57:51.863Z,98078.22
2024-01-07T10:00:19.845Z,98074.09
2024-01-07T10:02:48.005Z,98079.88
2024-01-07T10:05:15.895Z,98079.03
2024-01-07T10:07:43.770Z,98082.91
2024-01-07T10:10:16.057Z,98076.69
2024-01-07T10:12:48.332Z,98080.91
2024-01-07T10:15:16.542Z,98075.09
2024-01-07T10:17:44.770Z,98077.81
2024-01-07T10:20:14.081Z,98083.16
2024-01-07T10:22:42.000Z,98079.59
2024-01-07T10:25:10.228Z,98081.72
2024-01-07T10:27:39.365Z,98082.81
2024-01-07T10:30:07.792Z,98079.84
2024-01-07T10:32:39.686Z,98089.69
2024-01-07T10:35:15.522Z,98086.09
2024-01-07T10:37:44.359Z,98085.84
2024-01-07T10:40:13.642Z,98083.63
2024-01-07T10:42:42.080Z,98089.78
2024-01-07T10:45:12.035Z,98095.75
2024-01-07T10:47:42.201Z,98096.00
2024-01-07T10:50:13.538Z,98091.63
2024-01-07T10:52:41.819Z,98102.00
2024-01-07T10:55:11.506Z,98094.19
2024-01-07T10:57:49.051Z,98103.16
2024-01-07T11:00:21.126Z,98098.50
2024-01-07T11:03:16.052Z,98102.53
2024-01-07T11:05:49.909Z,98105.28
2024-01-07T11:08:28.174Z,98108.41
2024-01-07T11:11:16.340Z,98095.03
2024-01-07T11:13:45.207Z,98103.16
2024-01-07T11:16:13.419Z,98102.44
2024-01-07T11:18:47.709Z,98103.16
2024-01-07T11:21:23.264Z,98096.75
2024-01-07T11:23:52.457Z,98095.47
2024-01-07T11:26:24.748Z,98105.09
2024-01-07T11:29:00.075Z,98111.16
2024-01-07T11:31:39.951Z,98102.63
2024-01-07T11:34:09.475Z,98104.38
2024-01-07T11:36:38.523Z,98111.91
2024-01-07T11:39:10.848Z,98108.31
2024-01-07T11:41:41.291Z,98106.84
2024-01-07T11:44:12.511Z,98114.81
2024-01-07T11:46:40.573Z,98118.69
2024-01-07T11:49:10.404Z,98119.25
2024-01-07T11:51:39.148Z,98120.25
2024-01-07T11:54:08.362Z,98128.97
2024-01-07T11:56:37.524Z,98122.81
2024-01-07T11:59:06.247Z,98127.38
2024-01-07T12:01:34.203Z,98130.03
2024-01-07T12:04:02.426Z,98139.41
2024-01-07T12:06:31.292Z,98139.34
2024-01-07T12:08:59.294Z,98136.31
2024-01-07T12:11:28.095Z,98124.28
2024-01-07T12:13:56.312Z,98132.53
2024-01-07T12:16:24.328Z,98145.47
2024-01-07T12:18:52.329Z,98143.91
2024-01-07T12:21:23.622Z,98141.19
2024-01-07T12:23:52.340Z,98147.72
2024-01-07T12:26:20.561Z,98141.13
2024-01-07T12:28:55.354Z,98153.09
2024-01-07T12:31:23.539Z,98155.03
2024-01-07T12:33:52.513Z,98157.00
2024-01-07T12:36:24.643Z,98160.41
2024-01-07T12:38:56.921Z,98170.38
2024-01-07T12:41:25.610Z,98167.19
2024-01-07T12:43:53.666Z,98172.72
2024-01-07T12:46:21.809Z,98169.13
2024-01-07T12:48:50.124Z,98178.19
2024-01-07T12:51:20.743Z,98175.84
2024-01-07T12:53:50.853Z,98182.72
2024-01-07T12:56:18.725Z,98191.47
2024-01-07T12:58:46.665Z,98182.59
2024-01-07T13:01:15.392Z,98187.50
2024-01-07T13:03:43.825Z,98184.66
2024-01-07T13:06:12.059Z,98185.44
2024-01-07T13:08:40.110Z,98191.47
2024-01-07T13:11:10.072Z,98187.03
2024-01-07T13:13:38.548Z,98195.47
2024-01-07T13:16:06.815Z,98194.63
2024-01-07T13:18:34.878Z,98201.81
2024-01-07T13:21:02.925Z,98199.47
2024-01-07T13:23:31.059Z,98200.09
2024-01-07T13:25:58.964Z,98201.50
2024-01-07T13:28:26.938Z,98201.88
2024-01-07T13:30:55.222Z,98211.38
2024-01-07T13:33:23.310Z,98215.22
2024-01-07T13:35:51.278Z,98220.50
2024-01-07T13:38:19.308Z,98216.94
2024-01-07T13:40:47.825Z,98225.13
2024-01-07T13:43:16.674Z,98223.63
2024-01-07T13:45:44.985Z,98235.06
2024-01-07T13:48:13.001Z,98239.91
2024-01-07T13:50:40.953Z,98246.19
2024-01-07T13:53:09.286Z,98244.25
2024-01-07T13:55:37.244Z,98253.19
2024-01-07T13:58:05.704Z,98257.50
2024-01-07T14:00:33.980Z,98259.34
2024-01-07T14:03:02.681Z,98253.78
2024-01-07T14:05:30.622Z,98265.72
2024-01-07T14:07:58.762Z,98266.69
2024-01-07T14:10:26.686Z,98270.53
2024-01-07T14:12:54.718Z,98263.84
2024-01-07T14:15:22.751Z,98271.66
2024-01-07T14:17:50.810Z,98278.94
2024-01-07T14:20:19.317Z,98282.66
2024-01-07T14:22:47.358Z,98284.81
2024-01-07T14:25:15.762Z,98287.31
2024-01-07T14:27:44.841Z,98295.91
2024-01-07T14:30:14.392Z,98297.25
2024-01-07T14:32:42.783Z,98298.09
2024-01-07T14:35:13.357Z,98301.06
2024-01-07T14:37:41.927Z,98299.41
2024-01-07T14:40:10.180Z,98303.56
2024-01-07T14:42:38.212Z,98309.22
2024-01-07T14:45:06.884Z,98307.72
2024-01-07T14:47:35.580Z,98314.69
2024-01-07T14:50:06.056Z,98314.69
2024-01-07T14:52:35.653Z,98315.03
2024-01-07T14:55:03.770Z,98313.84
2024-01-07T14:57:32.124Z,98314.88
2024-01-07T15:00:00.263Z,98316.88
2024-01-07T15:02:28.276Z,98320.66
2024-01-07T15:04:56.510Z,98326.94
2024-01-07T15:07:26.090Z,98324.81
2024-01-07T15:09:54.217Z,98333.78
2024-01-07T15:12:23.590Z,98333.09
2024-01-07T15:14:51.628Z,98339.41
2024-01-07T15:17:19.800Z,98334.09
2024-01-07T15:19:47.814Z,98340.41
2024-01-07T15:22:16.076Z,98340.41
2024-01-07T15:24:44.028Z,98350.53
2024-01-07T15:27:11.937Z,98359.34
2024-01-07T15:29:39.985Z,98359.50
2024-01-07T15:32:07.991Z,98360.63
2024-01-07T15:34:36.168Z,98365.78
2024-01-07T15:37:04.518Z,98367.47
2024-01-07T15:39:32.653Z,98376.56
2024-01-07T15:42:01.228Z,98378.88
2024-01-07T15:44:29.341Z,98376.56
2024-01-07T15:46:57.378Z,98385.72
2024-01-07T15:49:25.381Z,98389.38
2024-01-07T15:51:53.600Z,98390.53
2024-01-07T15:54:21.503Z,98396.81
2024-01-07T15:56:49.484Z,98400.16
2024-01-07T15:59:18.822Z,98405.28
2024-01-07T16:01:50.326Z,98411.44
2024-01-07T16:04:22.820Z,98412.44
2024-01-07T16:06:52.608Z,98413.56
2024-01-07T16:09:21.158Z,98423.34
2024-01-07T16:11:49.508Z,98425.38
2024-01-07T16:14:26.217Z,98421.22
2024-01-07T16:16:54.542Z,98433.50
2024-01-07T16:19:22.597Z,98430.50
2024-01-07T16:21:50.928Z,98433.97
2024-01-07T16:24:18.862Z,98441.47
2024-01-07T16:26:47.374Z,98445.09
2024-01-07T16:29:16.825Z,98446.09
2024-01-07T16:31:46.092Z,98445.78
2024-01-07T16:34:14.356Z,98452.41
2024-01-07T16:36:43.492Z,98456.53
2024-01-07T16:39:11.523Z,98456.22
2024-01-07T16:41:39.502Z,98465.31
2024-01-07T16:44:10.015Z,98461.84
2024-01-07T16:46:38.055Z,98472.78
2024-01-07T16:51:37.162Z,98480.25
2024-01-07T16:54:05.624Z,98481.88
2024-01-07T16:56:33.624Z,98488.19
2024-01-07T16:59:02.178Z,98485.91
2024-01-07T17:01:30.160Z,98493.69
2024-01-07T17:03:58.191Z,98494.00
2024-01-07T17:06:27.414Z,98501.59
2024-01-07T17:08:55.359Z,98511.22
2024-01-07T17:11:23.726Z,98504.72
2024-01-07T17:13:51.914Z,98517.66
2024-01-07T17:16:21.445Z,98513.03
2024-01-07T17:18:49.551Z,98518.13
2024-01-07T17:21:18.484Z,98523.72
2024-01-07T17:23:52.192Z,98531.06
2024-01-07T17:26:20.627Z,98534.09
2024-01-07T17:28:50.091Z,98530.47
2024-01-07T17:31:18.140Z,98537.09
2024-01-07T17:33:46.350Z,98547.16
2024-01-07T17:36:16.667Z,98551.13
2024-01-07T17:38:44.738Z,98550.50
2024-01-07T17:41:13.732Z,98565.16
2024-01-07T17:43:42.126Z,98565.81
2024-01-07T17:46:10.901Z,98570.38
2024-01-07T17:48:41.786Z,98572.31
2024-01-07T17:51:09.743Z,98574.38
2024-01-07T17:53:42.040Z,98578.47
2024-01-07T17:56:19.001Z,98579.44
2024-01-07T17:58:47.752Z,98579.22
2024-01-07T18:01:15.814Z,98590.97
2024-01-07T18:03:44.080Z,98599.47
2024-01-07T18:06:12.098Z,98600.03
2024-01-07T18:08:46.662Z,98607.06
2024-01-07T18:11:18.403Z,98598.66
2024-01-07T18:13:46.536Z,98605.41
2024-01-07T18:16:14.983Z,98609.53
2024-01-07T18:18:43.352Z,98615.16
2024-01-07T18:21:15.126Z,98608.69
2024-01-07T18:23:43.805Z,98607.06
2024-01-07T18:26:12.104Z,98614.66
2024-01-07T18:28:40.951Z,98617.25
2024-01-07T18:31:09.214Z,98619.75
2024-01-07T18:33:37.352Z,98632.47
2024-01-07T18:36:09.835Z,98633.88
2024-01-07T18:38:39.087Z,98626.53
2024-01-07T18:41:07.119Z,98632.16
2024-01-07T18:43:35.260Z,98640.59
2024-01-07T18:46:03.969Z,98639.22
2024-01-07T18:48:32.293Z,98642.59
2024-01-07T18:51:03.567Z,98640.75
2024-01-07T18:53:31.515Z,98639.84
2024-01-07T18:55:59.508Z,98650.94
2024-01-07T18:58:28.668Z,98647.63
2024-01-07T19:00:56.723Z,98648.22
2024-01-07T19:03:25.090Z,98647.94
2024-01-07T19:05:53.729Z,98655.66
2024-01-07T19:08:21.829Z,98651.88
2024-01-07T19:10:50.066Z,98659.75
2024-01-07T19:13:18.305Z,98660.19
2024-01-07T19:15:46.591Z,98655.97
2024-01-07T19:18:14.826Z,98661.63
2024-01-07T19:20:43.288Z,98655.59
2024-01-07T19:23:11.424Z,98656.63
2024-01-07T19:25:39.648Z,98643.78
2024-01-07T19:28:07.734Z,98666.41
2024-01-07T19:30:35.776Z,98669.44
2024-01-07T19:33:04.685Z,98666.16
2024-01-07T19:35:33.155Z,98667.47
2024-01-07T19:38:01.245Z,98668.59
2024-01-07T19:40:30.298Z,98675.41
2024-01-07T19:42:58.576Z,98670.94
2024-01-07T19:45:29.615Z,98678.34
2024-01-07T19:47:58.576Z,98673.84
2024-01-07T19:50:27.168Z,98683.06
2024-01-07T19:52:55.478Z,98689.94
2024-01-07T19:55:23.720Z,98685.03
2024-01-07T19:57:51.693Z,98685.84
2024-01-07T20:00:19.993Z,98686.97
2024-01-07T20:02:50.478Z,98692.91
2024-01-07T20:05:18.723Z,98693.34
2024-01-07T20:07:47.045Z,98700.66
2024-01-07T20:10:15.637Z,98699.09
2024-01-07T20:12:43.547Z,98707.34
2024-01-07T20:15:12.341Z,98706.50
2024-01-07T20:17:40.774Z,98705.13
2024-01-07T20:20:11.552Z,98703.38
2024-01-07T20:22:39.713Z,98713.97
2024-01-07T20:25:08.860Z,98714.19
2024-01-07T20:27:36.910Z,98717.28
2024-01-07T20:30:07.067Z,98720.25
2024-01-07T20:32:36.858Z,98718.59
2024-01-07T20:35:05.423Z,98727.47
2024-01-07T20:37:33.560Z,98722.72
2024-01-07T20:40:01.586Z,98731.81
2024-01-07T20:42:38.997Z,98726.22
2024-01-07T20:45:10.556Z,98731.03
2024-01-07T20:47:38.894Z,98740.31
2024-01-07T20:50:08.506Z,98734.88
2024-01-07T20:52:36.602Z,98738.31
2024-01-07T20:55:04.847Z,98735.72
2024-01-07T20:57:32.887Z,98738.25
2024-01-07T21:00:01.121Z,98747.69
2024-01-07T21:02:29.229Z,98754.81
2024-01-07T21:04:57.604Z,98757.75
2024-01-07T21:07:31.832Z,98757.28
2024-01-07T21:10:00.915Z,98759.97
2024-01-07T21:12:28.857Z,98763.75
2024-01-07T21:14:58.590Z,98755.81
2024-01-07T21:17:26.540Z,98772.63
2024-01-07T21:19:54.576Z,98768.44
2024-01-07T21:22:22.544Z,98765.53
2024-01-07T21:24:50.442Z,98769.13
2024-01-07T21:27:18.567Z,98770.19
2024-01-07T21:29:49.319Z,98767.59
2024-01-07T21:32:17.445Z,98767.88
2024-01-07T21:34:45.612Z,98768.72
2024-01-07T21:37:13.598Z,98766.59
2024-01-07T21:39:43.675Z,98766.88
2024-01-07T21:42:12.946Z,98776.94
2024-01-07T21:44:40.982Z,98778.16
2024-01-07T21:47:09.315Z,98774.34
2024-01-07T21:49:45.534Z,98778.53
2024-01-07T21:52:13.974Z,98783.63
2024-01-07T21:54:42.842Z,98781.31
2024-01-07T21:57:11.316Z,98783.56
2024-01-07T21:59:39.253Z,98776.44
2024-01-07T22:02:07.774Z,98790.72
2024-01-07T22:04:37.459Z,98789.22
2024-01-07T22:07:05.869Z,98794.28
2024-01-07T22:09:34.523Z,98790.91
2024-01-07T22:12:02.551Z,98799.78
2024-01-07T22:14:30.837Z,98795.34
2024-01-07T22:16:58.811Z,98803.03
2024-01-07T22:19:27.535Z,98799.81
2024-01-07T22:21:55.488Z,98796.47
2024-01-07T22:24:24.077Z,98792.56
2024-01-07T22:26:52.285Z,98798.56
2024-01-07T22:29:22.138Z,98808.47
2024-01-07T22:31:51.158Z,98808.34
2024-01-07T22:34:19.563Z,98811.06
2024-01-07T22:36:47.532Z,98805.78
2024-01-07T22:39:16.361Z,98810.13
2024-01-07T22:41:45.635Z,98800.66
2024-01-07T22:44:16.362Z,98812.34
2024-01-07T22:46:46.898Z,98816.09
2024-01-07T22:49:15.150Z,98818.91
2024-01-07T22:51:46.962Z,98817.78
2024-01-07T22:54:14.947Z,98826.94
2024-01-07T22:56:46.830Z,98826.00
2024-01-07T22:59:19.396Z,98828.34
2024-01-07T23:01:47.760Z,98834.91
2024-01-07T23:04:15.723Z,98827.78
2024-01-07T23:06:43.713Z,98833.22
2024-01-07T23:09:12.363Z,98831.28
2024-01-07T23:11:40.412Z,98833.50
2024-01-07T23:14:08.753Z,98834.91
2024-01-07T23:16:36.962Z,98832.13
2024-01-07T23:19:05.852Z,98831.84
2024-01-07T23:21:33.926Z,98837.81
2024-01-07T23:24:02.347Z,98844.91
2024-01-07T23:26:30.579Z,98836.16
2024-01-07T23:28:58.730Z,98839.94
2024-01-07T23:31:27.006Z,98843.41
2024-01-07T23:33:56.747Z,98845.06
2024-01-07T23:36:25.122Z,98841.88
2024-01-07T23:38:53.386Z,98850.34
2024-01-07T23:41:21.389Z,98849.13
2024-01-07T23:43:52.016Z,98847.84
2024-01-07T23:46:21.070Z,98856.06
2024-01-07T23:48:49.400Z,98857.75
2024-01-07T23:51:17.690Z,98851.88
2024-01-07T23:53:45.592Z,98861.47
2024-01-07T23:56:13.730Z,98861.22
2024-01-07T23:58:41.654Z,98861.47
